sensor_id;sensor_type;location;lat;lon;timestamp;P1;durP1;ratioP1;P2;durP2;ratioP2
30010;SDS011;16851;53.564;8.112;2024-01-16T00:00:07;6.70;;;3.73;;
30010;SDS011;16851;53.564;8.112;2024-01-16T00:05:10;5.53;;;3.10;;
30010;SDS011;16851;53.564;8.112;2024-01-16T00:10:12;8.57;;;4.30;;
30010;SDS011;16851;53.564;8.112;2024-01-16T00:15:15;6.33;;;4.30;;
30010;SDS011;16851;53.564;8.112;2024-01-16T00:20:20;8.13;;;4.77;;
30010;SDS011;16851;53.564;8.112;2024-01-16T00:25:23;10.40;;;5.20;;
30010;SDS011;16851;53.564;8.112;2024-01-16T00:30:25;7.30;;;4.60;;
30010;SDS011;16851;53.564;8.112;2024-01-16T00:35:27;11.80;;;5.17;;
30010;SDS011;16851;53.564;8.112;2024-01-16T00:40:31;4.40;;;2.57;;
30010;SDS011;16851;53.564;8.112;2024-01-16T00:45:33;6.00;;;2.80;;
30010;SDS011;16851;53.564;8.112;2024-01-16T00:50:35;4.37;;;2.10;;
30010;SDS011;16851;53.564;8.112;2024-01-16T00:55:40;2.77;;;1.60;;
30010;SDS011;16851;53.564;8.112;2024-01-16T01:00:44;4.43;;;1.47;;
30010;SDS011;16851;53.564;8.112;2024-01-16T01:05:46;6.17;;;1.63;;
30010;SDS011;16851;53.564;8.112;2024-01-16T01:10:50;7.57;;;1.50;;
30010;SDS011;16851;53.564;8.112;2024-01-16T01:15:53;5.50;;;1.60;;
30010;SDS011;16851;53.564;8.112;2024-01-16T01:34:45;12.87;;;1.63;;
30010;SDS011;16851;53.564;8.112;2024-01-16T01:39:49;6.73;;;1.17;;
30010;SDS011;16851;53.564;8.112;2024-01-16T01:44:51;7.20;;;1.33;;
30010;SDS011;16851;53.564;8.112;2024-01-16T01:49:55;9.00;;;1.60;;
30010;SDS011;16851;53.564;8.112;2024-01-16T01:55:00;5.30;;;1.30;;
30010;SDS011;16851;53.564;8.112;2024-01-16T02:00:05;11.97;;;1.30;;
30010;SDS011;16851;53.564;8.112;2024-01-16T02:05:14;11.67;;;1.90;;
30010;SDS011;16851;53.564;8.112;2024-01-16T02:10:18;7.27;;;1.40;;
30010;SDS011;16851;53.564;8.112;2024-01-16T02:15:23;6.63;;;1.40;;
30010;SDS011;16851;53.564;8.112;2024-01-16T02:20:30;12.63;;;1.77;;
30010;SDS011;16851;53.564;8.112;2024-01-16T02:25:32;7.47;;;1.50;;
30010;SDS011;16851;53.564;8.112;2024-01-16T02:30:37;6.47;;;1.63;;
30010;SDS011;16851;53.564;8.112;2024-01-16T02:35:38;7.77;;;1.60;;
30010;SDS011;16851;53.564;8.112;2024-01-16T02:40:43;5.00;;;1.27;;
30010;SDS011;16851;53.564;8.112;2024-01-16T02:45:45;9.87;;;1.97;;
30010;SDS011;16851;53.564;8.112;2024-01-16T02:50:52;12.03;;;2.07;;
30010;SDS011;16851;53.564;8.112;2024-01-16T02:55:56;8.83;;;1.80;;
30010;SDS011;16851;53.564;8.112;2024-01-16T03:01:01;8.83;;;1.93;;
30010;SDS011;16851;53.564;8.112;2024-01-16T03:06:05;10.77;;;1.83;;
30010;SDS011;16851;53.564;8.112;2024-01-16T03:11:07;9.80;;;1.80;;
30010;SDS011;16851;53.564;8.112;2024-01-16T03:16:14;8.73;;;1.77;;
30010;SDS011;16851;53.564;8.112;2024-01-16T03:21:21;14.87;;;1.87;;
30010;SDS011;16851;53.564;8.112;2024-01-16T03:26:22;10.13;;;1.77;;
30010;SDS011;16851;53.564;8.112;2024-01-16T03:31:25;11.57;;;1.90;;
30010;SDS011;16851;53.564;8.112;2024-01-16T03:36:29;11.93;;;1.93;;
30010;SDS011;16851;53.564;8.112;2024-01-16T03:41:30;8.93;;;2.03;;
30010;SDS011;16851;53.564;8.112;2024-01-16T03:46:35;12.63;;;2.23;;
30010;SDS011;16851;53.564;8.112;2024-01-16T03:51:36;9.03;;;2.60;;
30010;SDS011;16851;53.564;8.112;2024-01-16T03:56:41;14.23;;;3.00;;
30010;SDS011;16851;53.564;8.112;2024-01-16T04:01:43;20.93;;;3.47;;
30010;SDS011;16851;53.564;8.112;2024-01-16T04:06:46;11.33;;;2.40;;
30010;SDS011;16851;53.564;8.112;2024-01-16T04:11:51;11.43;;;2.60;;
30010;SDS011;16851;53.564;8.112;2024-01-16T04:16:53;14.57;;;2.80;;
30010;SDS011;16851;53.564;8.112;2024-01-16T04:21:55;14.60;;;2.87;;
30010;SDS011;16851;53.564;8.112;2024-01-16T04:26:57;9.03;;;2.17;;
30010;SDS011;16851;53.564;8.112;2024-01-16T04:32:01;9.93;;;2.10;;
30010;SDS011;16851;53.564;8.112;2024-01-16T04:37:03;9.40;;;1.60;;
30010;SDS011;16851;53.564;8.112;2024-01-16T04:42:07;13.77;;;2.00;;
30010;SDS011;16851;53.564;8.112;2024-01-16T04:47:11;12.97;;;2.73;;
30010;SDS011;16851;53.564;8.112;2024-01-16T04:52:13;12.13;;;2.13;;
30010;SDS011;16851;53.564;8.112;2024-01-16T04:57:17;18.87;;;2.50;;
30010;SDS011;16851;53.564;8.112;2024-01-16T05:02:19;11.83;;;2.63;;
30010;SDS011;16851;53.564;8.112;2024-01-16T05:07:23;13.83;;;2.57;;
30010;SDS011;16851;53.564;8.112;2024-01-16T05:12:30;13.50;;;2.10;;
30010;SDS011;16851;53.564;8.112;2024-01-16T05:17:34;13.57;;;1.90;;
30010;SDS011;16851;53.564;8.112;2024-01-16T05:22:38;13.97;;;2.97;;
30010;SDS011;16851;53.564;8.112;2024-01-16T05:27:40;5.10;;;1.40;;
30010;SDS011;16851;53.564;8.112;2024-01-16T05:32:44;11.93;;;2.60;;
30010;SDS011;16851;53.564;8.112;2024-01-16T05:37:49;10.53;;;2.53;;
30010;SDS011;16851;53.564;8.112;2024-01-16T05:42:51;5.87;;;1.43;;
30010;SDS011;16851;53.564;8.112;2024-01-16T05:47:57;11.23;;;2.67;;
30010;SDS011;16851;53.564;8.112;2024-01-16T05:53:01;12.30;;;2.90;;
30010;SDS011;16851;53.564;8.112;2024-01-16T05:58:03;11.40;;;2.97;;
30010;SDS011;16851;53.564;8.112;2024-01-16T06:03:06;10.80;;;3.10;;
30010;SDS011;16851;53.564;8.112;2024-01-16T06:08:08;9.73;;;2.87;;
30010;SDS011;16851;53.564;8.112;2024-01-16T06:13:10;11.80;;;2.93;;
30010;SDS011;16851;53.564;8.112;2024-01-16T06:18:12;15.50;;;3.83;;
30010;SDS011;16851;53.564;8.112;2024-01-16T06:23:14;18.60;;;3.40;;
30010;SDS011;16851;53.564;8.112;2024-01-16T06:28:16;10.03;;;2.60;;
30010;SDS011;16851;53.564;8.112;2024-01-16T06:33:18;15.37;;;4.17;;
30010;SDS011;16851;53.564;8.112;2024-01-16T06:38:20;15.30;;;4.33;;
30010;SDS011;16851;53.564;8.112;2024-01-16T06:43:24;13.60;;;3.63;;
30010;SDS011;16851;53.564;8.112;2024-01-16T06:48:26;12.63;;;3.73;;
30010;SDS011;16851;53.564;8.112;2024-01-16T06:53:33;12.30;;;4.03;;
30010;SDS011;16851;53.564;8.112;2024-01-16T06:58:36;12.20;;;2.53;;
30010;SDS011;16851;53.564;8.112;2024-01-16T07:03:40;9.67;;;2.80;;
30010;SDS011;16851;53.564;8.112;2024-01-16T07:08:42;11.43;;;2.73;;
30010;SDS011;16851;53.564;8.112;2024-01-16T07:13:44;15.90;;;3.10;;
30010;SDS011;16851;53.564;8.112;2024-01-16T07:18:48;12.30;;;2.40;;
30010;SDS011;16851;53.564;8.112;2024-01-16T07:23:52;13.67;;;2.63;;
30010;SDS011;16851;53.564;8.112;2024-01-16T07:28:54;13.73;;;3.00;;
30010;SDS011;16851;53.564;8.112;2024-01-16T07:33:58;12.43;;;2.57;;
30010;SDS011;16851;53.564;8.112;2024-01-16T07:39:03;15.77;;;2.93;;
30010;SDS011;16851;53.564;8.112;2024-01-16T07:44:05;13.83;;;2.80;;
30010;SDS011;16851;53.564;8.112;2024-01-16T07:49:07;16.97;;;2.40;;
30010;SDS011;16851;53.564;8.112;2024-01-16T07:54:09;11.17;;;2.57;;
30010;SDS011;16851;53.564;8.112;2024-01-16T07:59:14;8.97;;;3.03;;
30010;SDS011;16851;53.564;8.112;2024-01-16T08:04:16;14.70;;;4.07;;
30010;SDS011;16851;53.564;8.112;2024-01-16T08:09:26;14.33;;;5.27;;
30010;SDS011;16851;53.564;8.112;2024-01-16T08:14:32;14.07;;;4.70;;
30010;SDS011;16851;53.564;8.112;2024-01-16T08:19:40;17.33;;;5.47;;
30010;SDS011;16851;53.564;8.112;2024-01-16T08:24:46;16.03;;;5.60;;
30010;SDS011;16851;53.564;8.112;2024-01-16T08:29:48;11.27;;;4.80;;
30010;SDS011;16851;53.564;8.112;2024-01-16T08:34:53;14.03;;;4.20;;
30010;SDS011;16851;53.564;8.112;2024-01-16T08:39:57;9.20;;;3.07;;
30010;SDS011;16851;53.564;8.112;2024-01-16T08:44:59;9.23;;;2.87;;
30010;SDS011;16851;53.564;8.112;2024-01-16T08:50:01;11.87;;;2.77;;
30010;SDS011;16851;53.564;8.112;2024-01-16T08:55:06;7.53;;;1.70;;
30010;SDS011;16851;53.564;8.112;2024-01-16T09:00:10;11.47;;;2.33;;
30010;SDS011;16851;53.564;8.112;2024-01-16T09:05:14;9.87;;;2.40;;
30010;SDS011;16851;53.564;8.112;2024-01-16T09:10:17;15.83;;;3.83;;
30010;SDS011;16851;53.564;8.112;2024-01-16T09:15:19;18.23;;;3.60;;
30010;SDS011;16851;53.564;8.112;2024-01-16T09:20:27;18.63;;;4.20;;
30010;SDS011;16851;53.564;8.112;2024-01-16T09:25:39;21.07;;;4.37;;
30010;SDS011;16851;53.564;8.112;2024-01-16T09:30:47;17.60;;;4.23;;
30010;SDS011;16851;53.564;8.112;2024-01-16T09:35:49;13.73;;;2.60;;
30010;SDS011;16851;53.564;8.112;2024-01-16T09:40:56;16.60;;;3.00;;
30010;SDS011;16851;53.564;8.112;2024-01-16T09:46:01;9.57;;;2.37;;
30010;SDS011;16851;53.564;8.112;2024-01-16T09:51:04;7.27;;;1.70;;
30010;SDS011;16851;53.564;8.112;2024-01-16T09:56:09;12.63;;;3.33;;
30010;SDS011;16851;53.564;8.112;2024-01-16T10:01:17;13.07;;;3.20;;
30010;SDS011;16851;53.564;8.112;2024-01-16T10:06:23;9.87;;;2.00;;
30010;SDS011;16851;53.564;8.112;2024-01-16T10:11:28;14.03;;;2.60;;
30010;SDS011;16851;53.564;8.112;2024-01-16T10:22:04;13.87;;;2.33;;
30010;SDS011;16851;53.564;8.112;2024-01-16T10:27:07;7.07;;;1.67;;
30010;SDS011;16851;53.564;8.112;2024-01-16T10:32:09;12.87;;;2.50;;
30010;SDS011;16851;53.564;8.112;2024-01-16T10:37:12;11.17;;;2.60;;
30010;SDS011;16851;53.564;8.112;2024-01-16T10:42:14;8.97;;;2.70;;
30010;SDS011;16851;53.564;8.112;2024-01-16T10:47:16;9.47;;;2.10;;
30010;SDS011;16851;53.564;8.112;2024-01-16T10:52:20;11.13;;;2.70;;
30010;SDS011;16851;53.564;8.112;2024-01-16T10:57:28;6.70;;;1.90;;
30010;SDS011;16851;53.564;8.112;2024-01-16T11:03:20;12.00;;;2.33;;
30010;SDS011;16851;53.564;8.112;2024-01-16T11:08:06;11.43;;;2.57;;
30010;SDS011;16851;53.564;8.112;2024-01-16T11:13:10;9.13;;;2.67;;
30010;SDS011;16851;53.564;8.112;2024-01-16T11:18:12;13.17;;;2.77;;
30010;SDS011;16851;53.564;8.112;2024-01-16T11:23:16;14.00;;;3.20;;
30010;SDS011;16851;53.564;8.112;2024-01-16T11:28:18;12.97;;;3.53;;
30010;SDS011;16851;53.564;8.112;2024-01-16T11:38:33;6.63;;;2.80;;
30010;SDS011;16851;53.564;8.112;2024-01-16T11:43:39;6.93;;;2.30;;
30010;SDS011;16851;53.564;8.112;2024-01-16T11:48:43;10.03;;;2.93;;
30010;SDS011;16851;53.564;8.112;2024-01-16T11:54:08;8.93;;;2.33;;
30010;SDS011;16851;53.564;8.112;2024-01-16T12:04:42;11.13;;;2.70;;
30010;SDS011;16851;53.564;8.112;2024-01-16T12:09:46;13.37;;;2.30;;
30010;SDS011;16851;53.564;8.112;2024-01-16T12:14:51;7.33;;;1.70;;
30010;SDS011;16851;53.564;8.112;2024-01-16T12:19:59;6.33;;;1.63;;
30010;SDS011;16851;53.564;8.112;2024-01-16T12:25:01;5.93;;;2.50;;
30010;SDS011;16851;53.564;8.112;2024-01-16T12:30:10;10.10;;;2.47;;
30010;SDS011;16851;53.564;8.112;2024-01-16T12:35:12;6.17;;;2.47;;
30010;SDS011;16851;53.564;8.112;2024-01-16T12:40:21;4.90;;;1.73;;
30010;SDS011;16851;53.564;8.112;2024-01-16T12:45:23;8.37;;;3.07;;
30010;SDS011;16851;53.564;8.112;2024-01-16T12:50:26;5.03;;;2.30;;
30010;SDS011;16851;53.564;8.112;2024-01-16T12:55:29;9.43;;;3.20;;
30010;SDS011;16851;53.564;8.112;2024-01-16T13:00:32;8.07;;;3.53;;
30010;SDS011;16851;53.564;8.112;2024-01-16T13:05:34;9.00;;;3.03;;
30010;SDS011;16851;53.564;8.112;2024-01-16T13:10:38;10.00;;;2.90;;
30010;SDS011;16851;53.564;8.112;2024-01-16T13:15:40;6.10;;;3.00;;
30010;SDS011;16851;53.564;8.112;2024-01-16T13:20:43;6.60;;;2.70;;
30010;SDS011;16851;53.564;8.112;2024-01-16T13:25:45;7.13;;;3.27;;
30010;SDS011;16851;53.564;8.112;2024-01-16T13:30:51;6.30;;;3.00;;
30010;SDS011;16851;53.564;8.112;2024-01-16T13:35:53;7.87;;;2.83;;
30010;SDS011;16851;53.564;8.112;2024-01-16T13:40:58;9.67;;;4.27;;
30010;SDS011;16851;53.564;8.112;2024-01-16T13:46:03;9.70;;;5.20;;
30010;SDS011;16851;53.564;8.112;2024-01-16T13:51:06;8.30;;;4.87;;
30010;SDS011;16851;53.564;8.112;2024-01-16T13:56:08;9.80;;;5.83;;
30010;SDS011;16851;53.564;8.112;2024-01-16T14:01:10;10.97;;;6.37;;
30010;SDS011;16851;53.564;8.112;2024-01-16T14:06:13;12.70;;;7.00;;
30010;SDS011;16851;53.564;8.112;2024-01-16T14:11:16;12.07;;;6.30;;
30010;SDS011;16851;53.564;8.112;2024-01-16T14:16:21;11.87;;;6.60;;
30010;SDS011;16851;53.564;8.112;2024-01-16T14:21:42;12.20;;;5.83;;
30010;SDS011;16851;53.564;8.112;2024-01-16T14:26:44;10.47;;;3.73;;
30010;SDS011;16851;53.564;8.112;2024-01-16T14:31:51;6.87;;;4.10;;
30010;SDS011;16851;53.564;8.112;2024-01-16T14:36:53;7.37;;;3.97;;
30010;SDS011;16851;53.564;8.112;2024-01-16T14:41:55;8.30;;;4.23;;
30010;SDS011;16851;53.564;8.112;2024-01-16T14:47:00;7.87;;;4.47;;
30010;SDS011;16851;53.564;8.112;2024-01-16T14:52:02;10.23;;;5.07;;
30010;SDS011;16851;53.564;8.112;2024-01-16T14:57:04;8.37;;;4.53;;
30010;SDS011;16851;53.564;8.112;2024-01-16T15:02:11;8.83;;;5.23;;
30010;SDS011;16851;53.564;8.112;2024-01-16T15:07:21;9.47;;;5.37;;
30010;SDS011;16851;53.564;8.112;2024-01-16T15:12:25;8.10;;;4.10;;
30010;SDS011;16851;53.564;8.112;2024-01-16T15:17:27;12.35;;;4.97;;
30010;SDS011;16851;53.564;8.112;2024-01-16T15:22:32;11.97;;;3.07;;
30010;SDS011;16851;53.564;8.112;2024-01-16T15:27:39;13.30;;;4.07;;
30010;SDS011;16851;53.564;8.112;2024-01-16T15:32:41;7.77;;;3.57;;
30010;SDS011;16851;53.564;8.112;2024-01-16T15:37:43;10.43;;;3.83;;
30010;SDS011;16851;53.564;8.112;2024-01-16T15:42:49;10.53;;;4.50;;
30010;SDS011;16851;53.564;8.112;2024-01-16T15:47:54;13.30;;;5.67;;
30010;SDS011;16851;53.564;8.112;2024-01-16T15:53:03;17.07;;;5.43;;
30010;SDS011;16851;53.564;8.112;2024-01-16T15:58:06;12.93;;;5.10;;
30010;SDS011;16851;53.564;8.112;2024-01-16T16:03:11;12.13;;;5.03;;
30010;SDS011;16851;53.564;8.112;2024-01-16T16:08:19;15.20;;;6.53;;
30010;SDS011;16851;53.564;8.112;2024-01-16T16:13:26;14.17;;;6.13;;
30010;SDS011;16851;53.564;8.112;2024-01-16T16:18:35;14.93;;;7.37;;
30010;SDS011;16851;53.564;8.112;2024-01-16T16:23:39;17.20;;;7.30;;
30010;SDS011;16851;53.564;8.112;2024-01-16T16:28:45;16.07;;;8.87;;
30010;SDS011;16851;53.564;8.112;2024-01-16T16:33:47;18.97;;;6.87;;
30010;SDS011;16851;53.564;8.112;2024-01-16T16:38:49;14.17;;;8.13;;
30010;SDS011;16851;53.564;8.112;2024-01-16T16:43:56;21.90;;;8.53;;
30010;SDS011;16851;53.564;8.112;2024-01-16T16:49:01;14.93;;;7.67;;
30010;SDS011;16851;53.564;8.112;2024-01-16T16:54:03;18.30;;;9.13;;
30010;SDS011;16851;53.564;8.112;2024-01-16T16:59:05;20.60;;;8.60;;
30010;SDS011;16851;53.564;8.112;2024-01-16T17:04:09;10.73;;;6.23;;
30010;SDS011;16851;53.564;8.112;2024-01-16T17:09:11;12.53;;;5.87;;
30010;SDS011;16851;53.564;8.112;2024-01-16T17:14:13;16.17;;;8.20;;
30010;SDS011;16851;53.564;8.112;2024-01-16T17:19:18;19.00;;;8.13;;
30010;SDS011;16851;53.564;8.112;2024-01-16T17:24:21;20.03;;;8.47;;
30010;SDS011;16851;53.564;8.112;2024-01-16T17:29:25;10.80;;;5.43;;
30010;SDS011;16851;53.564;8.112;2024-01-16T17:34:29;19.50;;;7.90;;
30010;SDS011;16851;53.564;8.112;2024-01-16T17:39:31;18.03;;;7.33;;
30010;SDS011;16851;53.564;8.112;2024-01-16T17:44:46;15.60;;;6.70;;
30010;SDS011;16851;53.564;8.112;2024-01-16T17:49:51;11.33;;;7.10;;
30010;SDS011;16851;53.564;8.112;2024-01-16T17:54:57;14.07;;;6.27;;
30010;SDS011;16851;53.564;8.112;2024-01-16T18:00:00;16.13;;;8.30;;
30010;SDS011;16851;53.564;8.112;2024-01-16T18:05:09;19.70;;;8.37;;
30010;SDS011;16851;53.564;8.112;2024-01-16T18:10:20;16.07;;;7.80;;
30010;SDS011;16851;53.564;8.112;2024-01-16T18:15:24;18.27;;;8.15;;
30010;SDS011;16851;53.564;8.112;2024-01-16T18:20:30;13.67;;;5.90;;
30010;SDS011;16851;53.564;8.112;2024-01-16T18:25:33;8.53;;;4.57;;
30010;SDS011;16851;53.564;8.112;2024-01-16T18:30:35;10.30;;;4.90;;
30010;SDS011;16851;53.564;8.112;2024-01-16T18:35:37;10.77;;;5.87;;
30010;SDS011;16851;53.564;8.112;2024-01-16T18:40:47;13.13;;;5.73;;
30010;SDS011;16851;53.564;8.112;2024-01-16T18:45:51;16.83;;;5.90;;
30010;SDS011;16851;53.564;8.112;2024-01-16T18:50:53;10.83;;;5.30;;
30010;SDS011;16851;53.564;8.112;2024-01-16T18:55:58;12.50;;;6.27;;
30010;SDS011;16851;53.564;8.112;2024-01-16T19:01:00;11.60;;;6.07;;
30010;SDS011;16851;53.564;8.112;2024-01-16T19:06:06;13.10;;;6.07;;
30010;SDS011;16851;53.564;8.112;2024-01-16T19:11:17;14.97;;;7.50;;
30010;SDS011;16851;53.564;8.112;2024-01-16T19:16:19;10.77;;;5.60;;
30010;SDS011;16851;53.564;8.112;2024-01-16T19:21:21;13.60;;;7.43;;
30010;SDS011;16851;53.564;8.112;2024-01-16T19:26:23;11.47;;;7.23;;
30010;SDS011;16851;53.564;8.112;2024-01-16T19:31:25;11.13;;;7.30;;
30010;SDS011;16851;53.564;8.112;2024-01-16T19:36:33;10.07;;;7.10;;
30010;SDS011;16851;53.564;8.112;2024-01-16T19:41:36;20.33;;;8.90;;
30010;SDS011;16851;53.564;8.112;2024-01-16T19:46:38;16.40;;;7.23;;
30010;SDS011;16851;53.564;8.112;2024-01-16T19:51:44;16.67;;;9.07;;
30010;SDS011;16851;53.564;8.112;2024-01-16T19:56:46;16.37;;;9.67;;
30010;SDS011;16851;53.564;8.112;2024-01-16T20:01:53;17.17;;;9.90;;
30010;SDS011;16851;53.564;8.112;2024-01-16T20:06:55;18.13;;;11.00;;
30010;SDS011;16851;53.564;8.112;2024-01-16T20:11:58;16.63;;;8.90;;
30010;SDS011;16851;53.564;8.112;2024-01-16T20:17:06;18.60;;;10.23;;
30010;SDS011;16851;53.564;8.112;2024-01-16T20:22:08;14.53;;;8.90;;
30010;SDS011;16851;53.564;8.112;2024-01-16T20:27:13;12.87;;;7.57;;
30010;SDS011;16851;53.564;8.112;2024-01-16T20:32:15;17.23;;;10.30;;
30010;SDS011;16851;53.564;8.112;2024-01-16T20:37:20;16.90;;;10.53;;
30010;SDS011;16851;53.564;8.112;2024-01-16T20:42:26;16.93;;;10.13;;
30010;SDS011;16851;53.564;8.112;2024-01-16T20:47:34;17.43;;;10.60;;
30010;SDS011;16851;53.564;8.112;2024-01-16T20:52:36;17.47;;;9.40;;
30010;SDS011;16851;53.564;8.112;2024-01-16T20:57:40;14.97;;;10.23;;
30010;SDS011;16851;53.564;8.112;2024-01-16T21:02:46;15.87;;;8.77;;
30010;SDS011;16851;53.564;8.112;2024-01-16T21:07:51;16.88;;;11.50;;
30010;SDS011;16851;53.564;8.112;2024-01-16T21:12:53;21.80;;;11.77;;
30010;SDS011;16851;53.564;8.112;2024-01-16T21:17:57;16.00;;;10.63;;
30010;SDS011;16851;53.564;8.112;2024-01-16T21:23:01;16.80;;;10.20;;
30010;SDS011;16851;53.564;8.112;2024-01-16T21:28:03;13.27;;;8.77;;
30010;SDS011;16851;53.564;8.112;2024-01-16T21:33:05;13.93;;;8.27;;
30010;SDS011;16851;53.564;8.112;2024-01-16T21:38:08;18.47;;;10.87;;
30010;SDS011;16851;53.564;8.112;2024-01-16T21:43:15;18.77;;;10.83;;
30010;SDS011;16851;53.564;8.112;2024-01-16T21:48:17;20.00;;;6.93;;
30010;SDS011;16851;53.564;8.112;2024-01-16T21:53:24;16.20;;;8.93;;
30010;SDS011;16851;53.564;8.112;2024-01-16T21:58:31;18.17;;;11.53;;
30010;SDS011;16851;53.564;8.112;2024-01-16T22:03:33;14.47;;;9.07;;
30010;SDS011;16851;53.564;8.112;2024-01-16T22:08:34;16.10;;;12.00;;
30010;SDS011;16851;53.564;8.112;2024-01-16T22:13:39;15.70;;;11.47;;
30010;SDS011;16851;53.564;8.112;2024-01-16T22:18:41;18.77;;;11.90;;
30010;SDS011;16851;53.564;8.112;2024-01-16T22:23:49;16.80;;;12.30;;
30010;SDS011;16851;53.564;8.112;2024-01-16T22:28:56;17.23;;;9.97;;
30010;SDS011;16851;53.564;8.112;2024-01-16T22:33:58;16.07;;;11.67;;
30010;SDS011;16851;53.564;8.112;2024-01-16T22:39:01;10.93;;;7.53;;
30010;SDS011;16851;53.564;8.112;2024-01-16T22:44:03;20.07;;;11.30;;
30010;SDS011;16851;53.564;8.112;2024-01-16T22:49:05;23.20;;;12.03;;
30010;SDS011;16851;53.564;8.112;2024-01-16T22:54:11;18.33;;;11.30;;
30010;SDS011;16851;53.564;8.112;2024-01-16T22:59:13;20.47;;;12.80;;
30010;SDS011;16851;53.564;8.112;2024-01-16T23:04:18;16.70;;;11.57;;
30010;SDS011;16851;53.564;8.112;2024-01-16T23:09:22;17.17;;;12.60;;
30010;SDS011;16851;53.564;8.112;2024-01-16T23:14:24;20.43;;;13.27;;
30010;SDS011;16851;53.564;8.112;2024-01-16T23:19:28;20.23;;;13.30;;
30010;SDS011;16851;53.564;8.112;2024-01-16T23:24:33;17.57;;;12.87;;
30010;SDS011;16851;53.564;8.112;2024-01-16T23:29:35;17.43;;;12.37;;
30010;SDS011;16851;53.564;8.112;2024-01-16T23:34:37;18.43;;;11.93;;
30010;SDS011;16851;53.564;8.112;2024-01-16T23:39:42;18.63;;;12.60;;
30010;SDS011;16851;53.564;8.112;2024-01-16T23:44:44;17.73;;;12.77;;
30010;SDS011;16851;53.564;8.112;2024-01-16T23:49:48;19.37;;;12.10;;
30010;SDS011;16851;53.564;8.112;2024-01-16T23:54:50;18.40;;;11.80;;
30010;SDS011;16851;53.564;8.112;2024-01-16T23:59:52;17.57;;;12.23;;
